createdAt,value
2018-04-19T00:00:37.833Z,18.43
2018-04-19T00:03:06.009Z,21.30
2018-04-19T00:05:34.155Z,21.37
2018-04-19T00:08:02.293Z,24.43
2018-04-19T00:10:31.228Z,19.03
2018-04-19T00:12:59.388Z,20.57
2018-04-19T00:15:27.528Z,19.00
2018-04-19T00:17:56.465Z,26.30
2018-04-19T00:20:24.602Z,17.63
2018-04-19T00:22:53.533Z,19.97
2018-04-19T00:25:21.684Z,22.40
2018-04-19T00:27:49.835Z,19.93
2018-04-19T00:30:18.045Z,20.73
2018-04-19T00:32:46.211Z,24.40
2018-04-19T00:35:14.355Z,15.87
2018-04-19T00:37:43.278Z,20.93
2018-04-19T00:40:11.409Z,20.20
2018-04-19T00:42:40.336Z,18.43
2018-04-19T00:45:08.486Z,18.33
2018-04-19T00:47:36.634Z,15.90
2018-04-19T00:50:05.543Z,17.70
2018-04-19T00:52:52.225Z,29.67
2018-04-19T00:55:20.385Z,22.03
2018-04-19T00:57:48.543Z,18.27
2018-04-19T01:00:16.684Z,18.60
2018-04-19T01:02:44.852Z,24.80
2018-04-19T01:05:12.998Z,20.70
2018-04-19T01:07:41.905Z,17.37
2018-04-19T01:10:10.066Z,20.77
2018-04-19T01:12:39.416Z,19.00
2018-04-19T01:15:07.577Z,21.97
2018-04-19T01:17:35.798Z,20.93
2018-04-19T01:20:04.036Z,23.83
2018-04-19T01:22:32.213Z,22.50
2018-04-19T01:25:00.363Z,19.57
2018-04-19T01:27:28.508Z,25.63
2018-04-19T01:29:57.434Z,19.97
2018-04-19T01:32:25.571Z,18.30
2018-04-19T01:34:54.477Z,24.80
2018-04-19T01:37:22.629Z,20.37
2018-04-19T01:39:50.775Z,18.57
2018-04-19T01:42:18.963Z,18.83
2018-04-19T01:44:47.097Z,27.40
2018-04-19T01:47:15.270Z,17.90
2018-04-19T01:49:43.426Z,23.97
2018-04-19T01:52:11.638Z,27.93
2018-04-19T01:54:39.792Z,23.33
2018-04-19T01:57:07.993Z,21.80
2018-04-19T01:59:36.166Z,22.90
2018-04-19T02:02:04.336Z,21.03
2018-04-19T02:04:32.501Z,18.80
2018-04-19T02:07:00.683Z,20.07
2018-04-19T02:09:28.831Z,26.73
2018-04-19T02:11:57.832Z,19.87
2018-04-19T02:14:25.989Z,18.70
2018-04-19T02:16:54.145Z,17.57
2018-04-19T02:19:22.298Z,24.30
2018-04-19T02:21:50.469Z,27.33
2018-04-19T02:24:19.386Z,26.37
2018-04-19T02:26:47.518Z,21.43
2018-04-19T02:29:16.421Z,20.77
2018-04-19T02:31:44.568Z,24.43
2018-04-19T02:34:12.718Z,21.77
2018-04-19T02:36:40.929Z,22.37
2018-04-19T02:39:09.098Z,23.10
2018-04-19T02:41:38.024Z,24.60
2018-04-19T02:44:06.205Z,22.30
2018-04-19T02:46:34.368Z,25.33
2018-04-19T02:49:02.634Z,22.47
2018-04-19T02:51:30.817Z,28.50
2018-04-19T02:53:58.963Z,26.07
2018-04-19T02:56:27.119Z,22.20
2018-04-19T02:58:55.268Z,25.07
2018-04-19T03:01:23.477Z,28.57
2018-04-19T03:03:52.380Z,27.33
2018-04-19T03:06:20.542Z,32.80
2018-04-19T03:08:48.686Z,29.30
2018-04-19T03:11:16.878Z,23.53
2018-04-19T03:13:45.046Z,24.30
2018-04-19T03:16:13.193Z,23.90
2018-04-19T03:18:41.358Z,22.00
2018-04-19T03:21:09.537Z,27.87
2018-04-19T03:23:37.693Z,29.70
2018-04-19T03:26:05.880Z,30.20
2018-04-19T03:28:34.026Z,25.40
2018-04-19T03:31:02.249Z,26.37
2018-04-19T03:33:30.396Z,25.53
2018-04-19T03:35:58.575Z,28.50
2018-04-19T03:38:26.714Z,24.13
2018-04-19T03:40:54.873Z,29.17
2018-04-19T03:43:23.047Z,27.00
2018-04-19T03:45:51.370Z,21.80
2018-04-19T03:48:19.684Z,23.93
2018-04-19T03:50:47.831Z,22.80
2018-04-19T03:53:16.001Z,25.67
2018-04-19T03:55:44.181Z,28.20
2018-04-19T03:58:12.337Z,26.60
2018-04-19T04:00:40.653Z,30.77
2018-04-19T04:03:08.799Z,24.57
2018-04-19T04:05:36.936Z,27.00
2018-04-19T04:08:05.089Z,30.97
2018-04-19T04:10:33.231Z,27.10
2018-04-19T04:13:01.383Z,27.43
2018-04-19T04:15:29.520Z,30.30
2018-04-19T04:18:15.365Z,24.93
2018-04-19T04:21:03.789Z,25.97
2018-04-19T04:23:53.379Z,31.07
2018-04-19T04:26:21.551Z,27.23
2018-04-19T04:28:49.705Z,36.23
2018-04-19T04:31:17.837Z,25.17
2018-04-19T04:33:46.051Z,31.20
2018-04-19T04:36:14.259Z,24.97
2018-04-19T04:38:42.415Z,30.40
2018-04-19T04:41:10.584Z,23.47
2018-04-19T04:43:38.754Z,28.40
2018-04-19T04:46:06.908Z,20.63
2018-04-19T04:48:35.069Z,29.17
2018-04-19T04:51:03.281Z,23.97
2018-04-19T04:53:31.488Z,26.83
2018-04-19T04:55:59.644Z,25.40
2018-04-19T04:58:28.555Z,33.20
2018-04-19T05:00:56.710Z,24.27
2018-04-19T05:03:25.687Z,24.63
2018-04-19T05:05:53.872Z,31.93
2018-04-19T05:08:22.035Z,26.20
2018-04-19T05:10:50.185Z,24.30
2018-04-19T05:13:18.357Z,29.03
2018-04-19T05:15:46.586Z,26.63
2018-04-19T05:18:14.732Z,29.10
2018-04-19T05:20:42.923Z,27.33
2018-04-19T05:23:11.159Z,27.63
2018-04-19T05:25:39.306Z,32.40
2018-04-19T05:28:07.494Z,24.80
2018-04-19T05:30:35.641Z,33.07
2018-04-19T05:33:05.307Z,24.27
2018-04-19T05:35:33.490Z,28.97
2018-04-19T05:38:02.997Z,29.63
2018-04-19T05:40:32.725Z,24.77
2018-04-19T05:43:00.860Z,25.30
2018-04-19T05:45:29.019Z,22.27
2018-04-19T05:47:57.181Z,35.07
2018-04-19T05:50:25.387Z,27.80
2018-04-19T05:52:54.313Z,30.30
2018-04-19T05:55:22.463Z,20.23
2018-04-19T05:57:51.384Z,22.00
2018-04-19T06:00:19.642Z,21.20
2018-04-19T06:02:47.792Z,20.17
2018-04-19T06:05:16.786Z,23.90
2018-04-19T06:07:44.957Z,36.00
2018-04-19T06:10:13.927Z,33.53
2018-04-19T06:12:42.088Z,26.57
2018-04-19T06:15:10.294Z,19.67
2018-04-19T06:17:38.423Z,21.63
2018-04-19T06:20:06.649Z,21.23
2018-04-19T06:22:34.788Z,20.97
2018-04-19T06:25:02.945Z,22.70
2018-04-19T06:27:31.080Z,26.40
2018-04-19T06:29:59.232Z,19.00
2018-04-19T06:32:28.173Z,24.37
2018-04-19T06:34:56.322Z,25.47
2018-04-19T06:37:24.484Z,18.30
2018-04-19T06:39:52.613Z,17.10
2018-04-19T06:42:21.577Z,27.07
2018-04-19T06:44:49.893Z,20.80
2018-04-19T06:47:18.058Z,25.50
2018-04-19T06:49:46.228Z,19.27
2018-04-19T06:52:14.402Z,25.83
2018-04-19T06:54:42.594Z,25.40
2018-04-19T06:57:10.757Z,16.50
2018-04-19T06:59:38.994Z,19.30
2018-04-19T07:02:07.152Z,17.40
2018-04-19T07:04:35.299Z,23.40
2018-04-19T07:07:04.218Z,24.53
2018-04-19T07:09:32.428Z,14.60
2018-04-19T07:12:00.630Z,19.33
2018-04-19T07:14:29.554Z,19.70
2018-04-19T07:16:57.734Z,23.00
2018-04-19T07:19:25.931Z,23.77
2018-04-19T07:21:54.111Z,27.00
2018-04-19T07:24:22.275Z,25.40
2018-04-19T07:26:50.683Z,24.50
2018-04-19T07:29:19.654Z,21.40
2018-04-19T07:31:47.822Z,19.57
2018-04-19T07:34:16.011Z,20.57
2018-04-19T07:36:44.231Z,21.73
2018-04-19T07:39:12.594Z,23.00
2018-04-19T07:41:40.814Z,22.53
2018-04-19T07:44:08.984Z,22.20
2018-04-19T07:46:37.143Z,25.93
2018-04-19T07:49:05.381Z,23.57
2018-04-19T07:51:33.588Z,25.80
2018-04-19T07:54:01.804Z,21.00
2018-04-19T07:56:29.947Z,24.63
2018-04-19T07:58:58.155Z,21.43
2018-04-19T08:01:26.321Z,21.90
2018-04-19T08:03:54.554Z,27.93
2018-04-19T08:06:22.705Z,24.20
2018-04-19T08:08:50.949Z,24.33
2018-04-19T08:11:19.152Z,25.47
2018-04-19T08:13:47.266Z,23.07
2018-04-19T08:16:15.456Z,25.10
2018-04-19T08:18:43.641Z,32.63
2018-04-19T08:21:11.907Z,20.73
2018-04-19T08:23:40.162Z,37.20
2018-04-19T08:26:08.312Z,29.93
2018-04-19T08:28:36.638Z,24.70
2018-04-19T08:31:04.794Z,22.80
2018-04-19T08:33:32.995Z,20.50
2018-04-19T08:36:01.934Z,27.13
2018-04-19T08:38:30.169Z,26.77
2018-04-19T08:40:58.505Z,29.00
2018-04-19T08:43:26.663Z,26.50
2018-04-19T08:45:56.420Z,25.07
2018-04-19T08:48:25.339Z,24.37
2018-04-19T08:50:53.474Z,30.43
2018-04-19T08:53:21.714Z,27.43
2018-04-19T08:55:49.850Z,24.80
2018-04-19T08:58:18.004Z,25.77
2018-04-19T09:00:46.942Z,37.53
2018-04-19T09:03:15.121Z,26.13
2018-04-19T09:05:43.463Z,23.83
2018-04-19T09:08:11.643Z,27.63
2018-04-19T09:10:39.799Z,27.57
2018-04-19T09:13:08.515Z,27.33
2018-04-19T09:15:36.694Z,24.27
2018-04-19T09:18:04.825Z,26.03
2018-04-19T09:20:33.725Z,22.00
2018-04-19T09:23:02.642Z,30.57
2018-04-19T09:25:30.782Z,39.23
2018-04-19T09:27:59.693Z,26.20
2018-04-19T09:30:27.931Z,20.97
2018-04-19T09:32:56.876Z,28.30
2018-04-19T09:35:25.018Z,23.50
2018-04-19T09:37:53.175Z,23.00
2018-04-19T09:40:22.153Z,21.90
2018-04-19T09:42:50.321Z,25.67
2018-04-19T09:45:18.504Z,25.73
2018-04-19T09:47:47.610Z,27.57
2018-04-19T09:50:16.590Z,26.80
2018-04-19T09:52:45.560Z,27.63
2018-04-19T09:55:13.710Z,22.83
2018-04-19T09:57:41.907Z,28.37
2018-04-19T10:00:10.127Z,31.13
2018-04-19T10:02:38.273Z,30.00
2018-04-19T10:05:07.205Z,32.73
2018-04-19T10:07:35.332Z,25.30
2018-04-19T10:10:04.235Z,27.70
2018-04-19T10:12:32.392Z,32.10
2018-04-19T10:15:00.541Z,29.33
2018-04-19T10:17:28.823Z,27.30
2018-04-19T10:19:56.967Z,29.57
2018-04-19T10:22:25.268Z,25.03
2018-04-19T10:24:53.735Z,25.80
2018-04-19T10:27:21.900Z,31.03
2018-04-19T10:29:50.037Z,28.53
2018-04-19T10:32:18.205Z,23.73
2018-04-19T10:34:46.351Z,27.27
2018-04-19T10:37:14.479Z,29.17
2018-04-19T10:39:42.692Z,23.90
2018-04-19T10:42:10.868Z,27.13
2018-04-19T10:44:39.159Z,27.43
2018-04-19T10:47:07.350Z,26.57
2018-04-19T10:49:35.563Z,27.60
2018-04-19T10:52:03.735Z,26.23
2018-04-19T10:54:31.976Z,27.70
2018-04-19T10:57:01.131Z,30.50
2018-04-19T10:59:29.473Z,23.97
2018-04-19T11:01:57.663Z,28.73
2018-04-19T11:04:25.845Z,22.60
2018-04-19T11:06:54.019Z,22.20
2018-04-19T11:09:22.172Z,22.67
2018-04-19T11:11:50.321Z,23.17
2018-04-19T11:14:18.534Z,33.00
2018-04-19T11:16:46.660Z,19.60
2018-04-19T11:19:14.911Z,22.23
2018-04-19T11:21:43.097Z,18.27
2018-04-19T11:24:12.189Z,14.57
2018-04-19T11:26:40.367Z,17.30
2018-04-19T11:29:08.511Z,15.70
2018-04-19T11:31:36.682Z,16.20
2018-04-19T11:34:05.306Z,15.40
2018-04-19T11:36:33.535Z,12.50
2018-04-19T11:39:01.685Z,19.30
2018-04-19T11:41:29.843Z,14.50
2018-04-19T11:43:57.985Z,17.17
2018-04-19T11:46:26.234Z,22.17
2018-04-19T11:48:54.475Z,14.87
2018-04-19T11:51:22.613Z,13.33
2018-04-19T11:53:50.876Z,13.63
2018-04-19T11:56:19.065Z,19.23
2018-04-19T11:58:47.288Z,15.00
2018-04-19T12:01:15.464Z,15.37
2018-04-19T12:03:43.792Z,13.77
2018-04-19T12:06:11.973Z,16.10
2018-04-19T12:08:40.132Z,15.00
2018-04-19T12:11:09.199Z,16.10
2018-04-19T12:13:37.423Z,17.23
2018-04-19T12:16:06.328Z,11.90
2018-04-19T12:18:34.482Z,11.20
2018-04-19T12:21:02.783Z,13.03
2018-04-19T12:23:30.910Z,19.17
2018-04-19T12:25:59.067Z,13.97
2018-04-19T12:28:28.154Z,16.30
2018-04-19T12:30:56.397Z,13.60
2018-04-19T12:33:24.529Z,11.73
2018-04-19T12:35:52.734Z,13.10
2018-04-19T12:38:21.030Z,11.53
2018-04-19T12:40:49.250Z,16.43
2018-04-19T12:43:18.357Z,12.40
2018-04-19T12:45:46.748Z,10.97
2018-04-19T12:48:14.887Z,21.13
2018-04-19T12:50:43.882Z,17.07
2018-04-19T12:53:12.016Z,17.13
2018-04-19T12:55:40.136Z,15.80
2018-04-19T12:58:08.297Z,12.83
2018-04-19T13:00:37.247Z,14.83
2018-04-19T13:03:05.390Z,16.53
2018-04-19T13:05:33.522Z,15.00
2018-04-19T13:08:02.427Z,11.63
2018-04-19T13:10:30.566Z,13.10
2018-04-19T13:13:00.283Z,17.97
2018-04-19T13:15:28.481Z,18.10
2018-04-19T13:17:56.654Z,14.30
2018-04-19T13:20:25.562Z,10.83
2018-04-19T13:22:53.703Z,12.23
2018-04-19T13:25:21.872Z,13.17
2018-04-19T13:27:50.818Z,13.00
2018-04-19T13:30:18.960Z,9.73
2018-04-19T13:32:47.127Z,12.53
2018-04-19T13:35:15.292Z,14.10
2018-04-19T13:37:43.430Z,10.10
2018-04-19T13:40:11.613Z,11.90
2018-04-19T13:42:39.775Z,15.10
2018-04-19T13:45:07.937Z,12.30
2018-04-19T13:47:36.125Z,18.20
2018-04-19T13:50:04.535Z,19.90
2018-04-19T13:52:33.428Z,10.83
2018-04-19T13:55:02.384Z,11.03
2018-04-19T13:57:30.527Z,14.07
2018-04-19T13:59:59.735Z,11.67
2018-04-19T14:02:27.860Z,12.70
2018-04-19T14:04:56.047Z,13.90
2018-04-19T14:07:24.220Z,10.83
2018-04-19T14:09:52.496Z,10.50
2018-04-19T14:12:21.515Z,12.00
2018-04-19T14:14:49.653Z,15.17
2018-04-19T14:17:18.729Z,14.13
2018-04-19T14:19:46.896Z,10.17
2018-04-19T14:22:15.052Z,13.07
2018-04-19T14:24:43.209Z,10.53
2018-04-19T14:27:11.360Z,16.80
2018-04-19T14:29:39.534Z,18.50
2018-04-19T14:32:07.694Z,12.10
2018-04-19T14:34:35.911Z,11.33
2018-04-19T14:37:04.038Z,15.13
2018-04-19T14:39:32.208Z,10.30
2018-04-19T14:42:00.344Z,16.13
2018-04-19T14:44:28.469Z,11.60
2018-04-19T14:46:56.636Z,14.60
2018-04-19T14:49:24.906Z,12.50
2018-04-19T14:51:53.057Z,8.97
2018-04-19T14:54:22.069Z,11.10
2018-04-19T14:56:50.203Z,15.17
2018-04-19T14:59:18.370Z,9.73
2018-04-19T15:01:46.535Z,12.43
2018-04-19T15:04:14.680Z,11.07
2018-04-19T15:06:42.836Z,22.90
2018-04-19T15:09:11.012Z,11.27
2018-04-19T15:11:39.157Z,15.33
2018-04-19T15:14:07.306Z,9.57
2018-04-19T15:16:35.454Z,14.40
2018-04-19T15:19:03.623Z,16.80
2018-04-19T15:21:31.745Z,9.27
2018-04-19T15:23:59.895Z,10.27
2018-04-19T15:26:28.046Z,11.40
2018-04-19T15:28:56.203Z,9.57
2018-04-19T15:31:24.346Z,10.63
2018-04-19T15:33:52.509Z,15.13
2018-04-19T15:36:21.490Z,11.40
2018-04-19T15:38:49.643Z,16.47
2018-04-19T15:41:17.938Z,13.80
2018-04-19T15:43:46.087Z,16.03
2018-04-19T15:46:14.285Z,14.50
2018-04-19T15:48:42.579Z,12.17
2018-04-19T15:51:10.741Z,19.37
2018-04-19T15:53:39.681Z,21.27
2018-04-19T15:56:07.827Z,11.10
2018-04-19T15:58:35.987Z,9.73
2018-04-19T16:01:04.162Z,10.00
2018-04-19T16:03:32.324Z,11.53
2018-04-19T16:06:00.497Z,19.17
2018-04-19T16:08:29.395Z,10.70
2018-04-19T16:10:57.532Z,11.90
2018-04-19T16:13:25.702Z,11.63
2018-04-19T16:15:53.823Z,15.23
2018-04-19T16:18:22.068Z,10.27
2018-04-19T16:20:50.262Z,11.20
2018-04-19T16:23:19.011Z,10.87
2018-04-19T16:25:47.157Z,15.90
2018-04-19T16:28:15.381Z,10.27
2018-04-19T16:30:43.540Z,13.13
2018-04-19T16:33:11.701Z,12.33
2018-04-19T16:35:39.851Z,11.00
2018-04-19T16:38:07.986Z,9.67
2018-04-19T16:40:36.127Z,10.50
2018-04-19T16:43:04.269Z,9.30
2018-04-19T16:45:32.521Z,15.43
2018-04-19T16:48:00.746Z,11.77
2018-04-19T16:50:28.967Z,10.33
2018-04-19T16:52:57.155Z,16.13
2018-04-19T16:55:25.391Z,12.43
2018-04-19T16:57:53.606Z,10.00
2018-04-19T17:00:21.770Z,12.90
2018-04-19T17:02:49.983Z,17.23
2018-04-19T17:05:18.132Z,9.60
2018-04-19T17:07:46.269Z,8.67
2018-04-19T17:10:14.397Z,8.73
2018-04-19T17:12:42.541Z,10.83
2018-04-19T17:15:10.679Z,22.20
2018-04-19T17:17:38.859Z,8.63
2018-04-19T17:20:07.046Z,12.70
2018-04-19T17:22:35.178Z,9.07
2018-04-19T17:25:04.167Z,12.33
2018-04-19T17:27:32.339Z,12.40
2018-04-19T17:30:00.484Z,9.03
2018-04-19T17:32:28.641Z,17.30
2018-04-19T17:34:56.814Z,19.90
2018-04-19T17:37:24.978Z,18.13
2018-04-19T17:39:53.105Z,23.00
2018-04-19T17:42:21.261Z,15.37
2018-04-19T17:44:49.415Z,19.47
2018-04-19T17:47:17.568Z,14.47
2018-04-19T17:49:45.715Z,10.27
2018-04-19T17:52:13.903Z,8.40
2018-04-19T17:54:42.099Z,10.90
2018-04-19T17:57:10.268Z,13.83
2018-04-19T17:59:38.431Z,8.30
2018-04-19T18:02:06.757Z,12.70
2018-04-19T18:04:35.688Z,10.00
2018-04-19T18:07:03.912Z,11.93
2018-04-19T18:09:32.118Z,10.50
2018-04-19T18:12:00.268Z,11.50
2018-04-19T18:14:28.576Z,8.50
2018-04-19T18:16:56.751Z,7.97
2018-04-19T18:19:24.903Z,10.00
2018-04-19T18:21:53.082Z,11.03
2018-04-19T18:24:21.271Z,12.80
2018-04-19T18:26:49.468Z,12.53
2018-04-19T18:29:17.636Z,15.20
2018-04-19T18:31:45.882Z,14.27
2018-04-19T18:34:14.096Z,9.10
2018-04-19T18:36:42.393Z,11.50
2018-04-19T18:39:10.631Z,11.00
2018-04-19T18:41:38.818Z,9.73
2018-04-19T18:44:06.999Z,13.63
2018-04-19T18:46:35.241Z,10.33
2018-04-19T18:49:03.471Z,11.37
2018-04-19T18:51:31.651Z,10.27
2018-04-19T18:53:59.834Z,10.17
2018-04-19T18:56:28.022Z,10.60
2018-04-19T18:58:56.208Z,12.53
2018-04-19T19:01:24.399Z,13.00
2018-04-19T19:03:52.576Z,11.83
2018-04-19T19:06:20.751Z,9.90
2018-04-19T19:08:49.094Z,11.10
2018-04-19T19:11:17.274Z,11.50
2018-04-19T19:13:45.599Z,12.60
2018-04-19T19:16:13.778Z,11.07
2018-04-19T19:18:59.677Z,15.47
2018-04-19T19:21:27.846Z,10.97
2018-04-19T19:23:56.108Z,14.30
2018-04-19T19:26:24.258Z,12.80
2018-04-19T19:28:52.548Z,16.23
2018-04-19T19:31:20.794Z,10.90
2018-04-19T19:33:48.990Z,17.13
2018-04-19T19:36:17.177Z,20.77
2018-04-19T19:38:45.353Z,22.43
2018-04-19T19:41:13.501Z,16.23
2018-04-19T19:43:41.664Z,14.90
2018-04-19T19:46:09.821Z,19.73
2018-04-19T19:48:38.062Z,28.73
2018-04-19T19:51:07.002Z,38.73
2018-04-19T19:53:35.162Z,12.93
2018-04-19T19:56:03.396Z,15.50
2018-04-19T19:58:31.605Z,15.93
2018-04-19T20:00:59.946Z,17.83
2018-04-19T20:03:28.274Z,11.60
2018-04-19T20:05:56.485Z,29.53
2018-04-19T20:08:24.844Z,13.27
2018-04-19T20:10:53.036Z,21.40
2018-04-19T20:13:21.216Z,13.93
2018-04-19T20:15:49.411Z,50.03
2018-04-19T20:18:18.339Z,16.20
2018-04-19T20:20:46.498Z,16.77
2018-04-19T20:23:14.653Z,15.73
2018-04-19T20:25:43.562Z,12.73
2018-04-19T20:28:11.706Z,16.97
2018-04-19T20:30:39.877Z,15.80
2018-04-19T20:33:08.792Z,13.90
2018-04-19T20:35:36.981Z,13.67
2018-04-19T20:38:05.121Z,13.57
2018-04-19T20:40:34.146Z,10.77
2018-04-19T20:43:02.365Z,14.40
2018-04-19T20:45:30.513Z,12.13
2018-04-19T20:47:58.668Z,12.10
2018-04-19T20:50:26.812Z,11.53
2018-04-19T20:52:55.730Z,14.30
2018-04-19T20:55:23.919Z,18.03
2018-04-19T20:57:52.078Z,17.50
2018-04-19T21:00:20.260Z,10.70
2018-04-19T21:02:48.408Z,13.70
2018-04-19T21:05:16.751Z,15.43
2018-04-19T21:07:45.658Z,13.10
2018-04-19T21:10:13.817Z,13.40
2018-04-19T21:12:42.776Z,14.93
2018-04-19T21:15:10.923Z,14.10
2018-04-19T21:17:39.074Z,14.90
2018-04-19T21:20:07.226Z,15.60
2018-04-19T21:22:36.157Z,21.60
2018-04-19T21:25:04.284Z,20.00
2018-04-19T21:27:32.431Z,14.00
2018-04-19T21:30:00.572Z,19.40
2018-04-19T21:32:28.749Z,15.13
2018-04-19T21:34:56.966Z,15.80
2018-04-19T21:37:25.124Z,16.00
2018-04-19T21:39:53.331Z,12.50
2018-04-19T21:42:21.499Z,14.57
2018-04-19T21:44:49.653Z,11.50
2018-04-19T21:47:17.869Z,20.93
2018-04-19T21:49:46.813Z,23.87
2018-04-19T21:52:15.078Z,25.10
2018-04-19T21:54:43.254Z,15.03
2018-04-19T21:57:11.417Z,13.97
2018-04-19T21:59:39.579Z,19.73
2018-04-19T22:02:07.777Z,24.80
2018-04-19T22:04:35.908Z,11.40
2018-04-19T22:07:04.050Z,19.73
2018-04-19T22:09:32.217Z,15.03
2018-04-19T22:12:00.357Z,17.53
2018-04-19T22:14:28.517Z,17.30
2018-04-19T22:16:56.644Z,13.20
2018-04-19T22:19:26.184Z,11.40
2018-04-19T22:21:54.345Z,14.40
2018-04-19T22:24:22.502Z,15.80
2018-04-19T22:26:51.424Z,11.63
2018-04-19T22:29:19.598Z,14.43
2018-04-19T22:31:47.782Z,15.00
2018-04-19T22:34:15.944Z,13.37
2018-04-19T22:36:44.094Z,16.60
2018-04-19T22:39:12.226Z,13.30
2018-04-19T22:41:40.405Z,16.43
2018-04-19T22:44:08.561Z,14.63
2018-04-19T22:46:36.733Z,12.93
2018-04-19T22:49:04.886Z,12.23
2018-04-19T22:51:33.048Z,12.77
2018-04-19T22:54:01.228Z,17.13
2018-04-19T22:56:29.368Z,10.67
2018-04-19T22:58:57.526Z,14.07
2018-04-19T23:01:26.456Z,12.73
2018-04-19T23:03:54.618Z,14.97
2018-04-19T23:06:22.802Z,24.33
2018-04-19T23:08:50.961Z,15.00
2018-04-19T23:11:19.091Z,14.80
2018-04-19T23:13:47.249Z,13.60
2018-04-19T23:16:15.395Z,10.80
2018-04-19T23:18:43.562Z,13.50
2018-04-19T23:21:11.715Z,16.23
2018-04-19T23:23:39.867Z,13.77
2018-04-19T23:26:08.807Z,16.20
2018-04-19T23:28:36.968Z,17.30
2018-04-19T23:31:05.121Z,13.63
2018-04-19T23:33:33.333Z,16.73
2018-04-19T23:36:01.537Z,17.40
2018-04-19T23:38:29.741Z,18.73
2018-04-19T23:40:57.933Z,13.73
2018-04-19T23:43:26.141Z,19.77
2018-04-19T23:45:54.268Z,11.07
2018-04-19T23:48:22.401Z,14.07
2018-04-19T23:50:50.554Z,19.43
2018-04-19T23:53:18.700Z,12.67
2018-04-19T23:55:46.862Z,19.13
2018-04-19T23:58:15.004Z,14.80
